Time;durP1;ratioP1;P1;durP2;ratioP2;P2;SDS_P1;SDS_P2;PMS_P1;PMS_P2;Temp;Humidity;BMP_temperature;BMP_pressure;BME280_temperature;BME280_humidity;BME280_pressure;Samples;Min_cycle;Max_cycle;Signal;HPM_P1;HPM_P2
2022/06/25 00:00:25;;;;;;;1.17;1.13;;;;;;;14.59;97.12;95343.66;4906141;29;20198;-78
2022/06/25 00:02:50;;;;;;;1.50;1.40;;;;;;;14.48;96.87;95346.66;4910856;29;20189;-79
2022/06/25 00:05:28;;;;;;;1.77;1.60;;;;;;;14.45;97.35;95347.84;4921799;29;20647;-79
2022/06/25 00:07:54;;;;;;;1.47;1.37;;;;;;;14.47;97.85;95356.31;4921923;29;20669;-77
2022/06/25 00:10:19;;;;;;;1.40;1.30;;;;;;;14.42;97.96;95346.38;4921100;29;20206;-80
2022/06/25 00:12:45;;;;;;;2.57;1.50;;;;;;;14.50;97.39;95348.13;4930456;29;20192;-79
2022/06/25 00:15:10;;;;;;;1.40;1.30;;;;;;;14.53;97.16;95352.19;4921157;29;20237;-80
2022/06/25 00:17:36;;;;;;;2.27;1.70;;;;;;;14.49;96.90;95345.66;4920741;29;20575;-80
2022/06/25 00:20:03;;;;;;;1.50;1.40;;;;;;;14.37;96.82;95353.09;4938101;29;20205;-79
2022/06/25 00:22:28;;;;;;;1.90;1.40;;;;;;;14.38;96.60;95354.72;4905556;29;20209;-80
2022/06/25 00:24:53;;;;;;;1.27;1.23;;;;;;;14.44;96.44;95356.63;4914638;28;20189;-80
2022/06/25 00:27:19;;;;;;;1.37;1.27;;;;;;;14.38;96.40;95359.94;4937490;29;20212;-80
2022/06/25 00:29:44;;;;;;;1.63;1.53;;;;;;;14.34;96.75;95361.28;4940332;29;20264;-78
2022/06/25 00:32:34;;;;;;;1.50;1.30;;;;;;;14.37;96.76;95360.94;4940241;29;20188;-79
2022/06/25 00:35:00;;;;;;;1.70;1.60;;;;;;;14.24;97.57;95358.09;4904640;29;20610;-79
2022/06/25 00:37:25;;;;;;;1.63;1.50;;;;;;;14.14;98.30;95356.53;4905400;29;20209;-79
2022/06/25 00:39:51;;;;;;;2.50;1.50;;;;;;;14.10;98.85;95363.06;4921168;29;20221;-79
2022/06/25 00:42:17;;;;;;;2.83;1.83;;;;;;;14.08;99.02;95359.84;4920689;29;20193;-80
2022/06/25 00:44:44;;;;;;;1.97;1.50;;;;;;;14.12;98.70;95358.50;4904686;29;20288;-81
2022/06/25 00:47:13;;;;;;;2.00;1.70;;;;;;;14.10;98.99;95359.66;4920565;29;20269;-80
2022/06/25 00:49:39;;;;;;;3.87;1.80;;;;;;;14.14;98.25;95353.94;4904344;29;20252;-78
2022/06/25 00:52:08;;;;;;;2.50;1.50;;;;;;;14.14;97.98;95358.34;4904670;29;20193;-80
2022/06/25 00:54:35;;;;;;;1.70;1.60;;;;;;;14.25;97.59;95359.72;4920254;29;20182;-80
2022/06/25 00:57:04;;;;;;;2.87;1.73;;;;;;;14.24;97.45;95361.53;4920383;29;20178;-80
2022/06/25 00:59:36;;;;;;;1.77;1.63;;;;;;;14.21;97.77;95361.84;4919940;29;20634;-79
2022/06/25 01:02:02;;;;;;;1.77;1.67;;;;;;;14.07;98.91;95360.81;4935225;29;20197;-80
2022/06/25 01:04:27;;;;;;;5.03;1.63;;;;;;;14.07;98.80;95360.81;4956629;29;20178;-79
2022/06/25 01:06:53;;;;;;;1.63;1.53;;;;;;;14.02;98.91;95357.91;4957102;28;20181;-80
2022/06/25 01:09:18;;;;;;;2.80;2.23;;;;;;;14.08;98.03;95356.41;4939569;28;20239;-79
2022/06/25 01:11:43;;;;;;;3.63;1.50;;;;;;;14.11;97.88;95363.88;4940081;29;20221;-79
2022/06/25 01:14:09;;;;;;;2.80;1.50;;;;;;;14.16;98.24;95365.00;4922829;29;20217;-79
2022/06/25 01:16:35;;;;;;;2.27;1.57;;;;;;;14.13;97.20;95370.59;4939863;29;20185;-80
2022/06/25 01:19:06;;;;;;;1.57;1.47;;;;;;;14.20;97.33;95362.84;4923348;29;20666;-79
2022/06/25 01:21:31;;;;;;;1.57;1.30;;;;;;;14.14;97.40;95368.78;4934042;29;20288;-80
2022/06/25 01:23:57;;;;;;;2.10;1.60;;;;;;;14.18;97.25;95370.06;4922638;29;20190;-79
2022/06/25 01:26:22;;;;;;;1.87;1.67;;;;;;;14.12;97.33;95365.50;4931315;29;20185;-80
2022/06/25 01:28:47;;;;;;;1.70;1.60;;;;;;;14.03;97.99;95372.59;4919925;29;20215;-79
2022/06/25 01:31:13;;;;;;;2.97;1.50;;;;;;;14.06;97.31;95361.81;4919937;29;20206;-79
2022/06/25 01:33:38;;;;;;;1.60;1.50;;;;;;;14.07;97.42;95365.25;4919935;29;20177;-80
2022/06/25 01:36:04;;;;;;;1.77;1.67;;;;;;;14.03;97.71;95371.78;4919543;29;20559;-80
2022/06/25 01:38:29;;;;;;;1.60;1.50;;;;;;;14.04;97.31;95368.97;4919839;29;20186;-80
2022/06/25 01:40:54;;;;;;;1.70;1.60;;;;;;;13.98;97.07;95367.09;4919953;29;20248;-80
2022/06/25 01:43:19;;;;;;;1.77;1.60;;;;;;;13.99;97.59;95370.50;4919677;29;20197;-80
2022/06/25 01:45:46;;;;;;;2.17;1.73;;;;;;;13.91;98.33;95363.53;4919662;29;20638;-80
2022/06/25 01:48:11;;;;;;;1.87;1.77;;;;;;;13.97;97.72;95367.25;4919614;29;20387;-79
2022/06/25 01:50:36;;;;;;;1.87;1.77;;;;;;;14.01;97.54;95368.53;4919751;29;20256;-80
2022/06/25 01:53:02;;;;;;;1.60;1.40;;;;;;;13.87;98.23;95367.50;4919681;29;20205;-79
2022/06/25 01:55:28;;;;;;;2.27;1.60;;;;;;;13.88;98.24;95366.50;4919531;29;20188;-79
2022/06/25 01:57:53;;;;;;;1.50;1.40;;;;;;;13.83;98.30;95361.78;4933112;29;20229;-80
2022/06/25 02:00:24;;;;;;;2.87;1.40;;;;;;;13.89;97.17;95370.72;4919879;29;20249;-79
2022/06/25 02:02:50;;;;;;;2.37;1.50;;;;;;;13.95;97.28;95364.81;4904617;29;20182;-81
2022/06/25 02:05:17;;;;;;;2.77;1.53;;;;;;;13.89;97.29;95371.53;4919192;29;20701;-80
2022/06/25 02:07:43;;;;;;;1.90;1.70;;;;;;;13.88;97.04;95372.53;4919279;29;20180;-79
2022/06/25 02:10:09;;;;;;;1.67;1.57;;;;;;;13.92;96.96;95374.78;4919556;29;20280;-80
2022/06/25 02:12:35;;;;;;;1.93;1.60;;;;;;;13.96;97.19;95373.44;4920015;29;20178;-80
2022/06/25 02:15:01;;;;;;;1.77;1.67;;;;;;;13.94;97.08;95380.63;4918720;29;20186;-80
2022/06/25 02:17:27;;;;;;;2.10;1.57;;;;;;;13.90;97.07;95377.56;4919372;29;20620;-79
2022/06/25 02:19:52;;;;;;;1.53;1.43;;;;;;;13.77;98.59;95378.13;4936628;29;20220;-80
2022/06/25 02:22:18;;;;;;;1.80;1.70;;;;;;;13.92;97.76;95382.63;4928991;29;20650;-79
2022/06/25 02:24:44;;;;;;;2.60;1.63;;;;;;;13.88;97.18;95382.97;4918884;29;20599;-79
2022/06/25 02:27:10;;;;;;;1.60;1.50;;;;;;;13.85;97.64;95377.25;4919011;29;20261;-80
2022/06/25 02:29:35;;;;;;;2.20;2.00;;;;;;;13.70;99.47;95387.63;4918804;29;20622;-79
2022/06/25 02:32:01;;;;;;;1.53;1.43;;;;;;;13.69;99.40;95391.19;4918838;29;20182;-80
2022/06/25 02:34:26;;;;;;;1.63;1.53;;;;;;;13.68;99.75;95386.97;4917260;29;20217;-80
2022/06/25 02:36:52;;;;;;;3.30;1.87;;;;;;;13.68;100.00;95392.19;4919015;29;20217;-80
2022/06/25 02:39:17;;;;;;;1.90;1.80;;;;;;;13.69;99.43;95399.03;4918942;29;20253;-79
2022/06/25 02:41:43;;;;;;;1.90;1.80;;;;;;;13.75;99.67;95390.53;4922807;29;20217;-80
2022/06/25 02:44:08;;;;;;;2.50;1.77;;;;;;;13.70;99.50;95387.63;4922140;29;20197;-80
2022/06/25 02:46:34;;;;;;;1.87;1.70;;;;;;;13.76;99.30;95397.38;4906637;29;20221;-80
2022/06/25 02:48:59;;;;;;;1.90;1.70;;;;;;;13.80;98.34;95384.81;4922293;29;20537;-80
2022/06/25 02:51:24;;;;;;;2.57;1.50;;;;;;;13.84;97.96;95389.50;4928362;29;20240;-80
2022/06/25 02:53:50;;;;;;;1.80;1.20;;;;;;;13.87;97.79;95391.78;4922306;29;20272;-80
2022/06/25 02:59:02;;;;;;;1.93;1.40;;;;;;;13.91;96.67;95392.25;4924730;29;20216;-79
2022/06/25 03:01:29;;;;;;;2.73;2.30;;;;;;;13.82;97.60;95393.28;4906367;29;20706;-79
2022/06/25 03:03:55;;;;;;;2.07;1.50;;;;;;;13.92;97.22;95393.06;4906364;29;20182;-80
2022/06/25 03:06:20;;;;;;;2.30;1.40;;;;;;;13.91;96.77;95394.03;4922008;29;20182;-80
2022/06/25 03:08:47;;;;;;;2.10;1.70;;;;;;;13.94;96.56;95396.31;4922633;29;20178;-79
2022/06/25 03:11:12;;;;;;;2.30;1.67;;;;;;;13.92;96.35;95396.47;4922335;29;20202;-78
2022/06/25 03:13:38;;;;;;;1.67;1.57;;;;;;;13.86;96.55;95394.53;4922176;29;20185;-78
2022/06/25 03:16:04;;;;;;;1.73;1.63;;;;;;;13.90;96.39;95393.25;4921983;29;20654;-80
2022/06/25 03:18:30;;;;;;;1.60;1.30;;;;;;;14.00;95.92;95393.00;4921986;29;20189;-80
2022/06/25 03:20:55;;;;;;;1.63;1.53;;;;;;;13.98;95.80;95390.59;4921912;29;20585;-79
2022/06/25 03:23:20;;;;;;;2.73;1.60;;;;;;;13.87;95.99;95391.78;4921746;29;20190;-79
2022/06/25 03:25:46;;;;;;;2.63;1.40;;;;;;;13.93;95.84;95397.28;4936082;29;20220;-80
2022/06/25 03:28:12;;;;;;;2.73;1.67;;;;;;;13.84;96.41;95392.13;4921466;29;20669;-81
2022/06/25 03:30:38;;;;;;;2.00;1.60;;;;;;;13.79;96.49;95391.03;4922060;29;20213;-79
2022/06/25 03:33:03;;;;;;;1.67;1.37;;;;;;;13.84;95.90;95399.13;4939211;29;20209;-80
2022/06/25 03:35:29;;;;;;;1.87;1.33;;;;;;;13.73;96.62;95397.72;4920815;29;20661;-80
2022/06/25 03:37:55;;;;;;;1.50;1.40;;;;;;;13.58;97.86;95400.22;4921600;29;20185;-80
2022/06/25 03:40:20;;;;;;;2.83;1.50;;;;;;;13.63;97.09;95397.13;4920834;29;20201;-80
2022/06/25 03:42:45;;;;;;;3.53;1.40;;;;;;;13.75;96.92;95390.53;4921491;29;20237;-80
2022/06/25 03:45:11;;;;;;;2.40;1.50;;;;;;;13.89;95.81;95400.25;4920331;29;20539;-80
2022/06/25 03:47:36;;;;;;;1.50;1.40;;;;;;;13.92;95.59;95395.66;4921650;29;20682;-79
2022/06/25 03:50:02;;;;;;;2.10;1.50;;;;;;;13.97;95.12;95399.41;4921179;29;20255;-80
2022/06/25 03:52:27;;;;;;;5.63;3.00;;;;;;;14.23;94.44;95393.84;4920003;29;20210;-80
2022/06/25 03:54:52;;;;;;;3.57;1.63;;;;;;;15.08;90.97;95404.09;4904667;29;20241;-81
2022/06/25 03:57:18;;;;;;;1.77;1.30;;;;;;;16.45;81.98;95407.03;4921330;29;20186;-80
2022/06/25 03:59:43;;;;;;;1.20;1.10;;;;;;;17.92;73.60;95405.25;4921029;29;20202;-80
2022/06/25 04:02:08;;;;;;;2.47;1.10;;;;;;;19.09;66.79;95412.78;4938857;29;20233;-77
2022/06/25 04:04:34;;;;;;;2.05;1.10;;;;;;;19.46;64.17;95422.63;4922015;29;20178;-79
2022/06/25 04:06:59;;;;;;;0.90;0.90;;;;;;;20.38;62.30;95421.50;4938931;29;20209;-79
2022/06/25 04:09:24;;;;;;;1.23;1.00;;;;;;;20.87;58.35;95427.94;4921745;29;20228;-78
2022/06/25 04:11:49;;;;;;;1.52;1.10;;;;;;;21.54;55.52;95425.53;4922143;29;20217;-78
2022/06/25 04:14:15;;;;;;;1.23;0.90;;;;;;;21.63;55.42;95424.22;4921670;29;20192;-80
2022/06/25 04:16:40;;;;;;;2.08;0.80;;;;;;;22.33;51.97;95423.84;4939151;29;20177;-78
2022/06/25 04:19:05;;;;;;;2.47;0.90;;;;;;;22.92;50.04;95429.38;4927435;29;20261;-79
2022/06/25 04:21:32;;;;;;;2.20;0.90;;;;;;;22.54;51.27;95433.97;4939011;29;20249;-80
2022/06/25 04:23:57;;;;;;;1.88;0.90;;;;;;;24.30;47.62;95431.41;4921572;29;20189;-79
2022/06/25 04:26:22;;;;;;;0.80;0.70;;;;;;;23.55;47.76;95431.38;4923938;29;20178;-78
2022/06/25 04:29:03;;;;;;;1.10;0.90;;;;;;;23.22;48.22;95438.03;4921465;29;20241;-80
2022/06/25 04:31:29;;;;;;;1.70;0.77;;;;;;;24.04;47.14;95437.25;4924361;29;20670;-79
2022/06/25 04:33:54;;;;;;;0.90;0.80;;;;;;;24.93;45.89;95440.28;4905528;29;20200;-79
2022/06/25 04:36:19;;;;;;;0.95;0.95;;;;;;;25.50;43.49;95443.59;4921255;29;20176;-80
2022/06/25 04:38:45;;;;;;;0.60;0.60;;;;;;;26.50;41.13;95449.72;4921436;29;20307;-80
2022/06/25 04:41:10;;;;;;;0.88;0.88;;;;;;;26.49;40.67;95443.59;4905888;29;20202;-80
2022/06/25 04:43:35;;;;;;;1.27;0.70;;;;;;;27.85;38.07;95455.75;4921020;29;20190;-79
2022/06/25 04:46:01;;;;;;;2.17;0.73;;;;;;;27.04;39.63;95458.56;4921163;29;20728;-80
2022/06/25 04:48:26;;;;;;;1.88;0.80;;;;;;;27.15;38.06;95451.47;4905200;29;20200;-79
2022/06/25 04:50:51;;;;;;;1.25;0.70;;;;;;;25.99;40.76;95459.75;4921425;29;20260;-79
2022/06/25 04:53:17;;;;;;;2.28;0.98;;;;;;;27.36;38.37;95453.22;4937889;29;20205;-80
2022/06/25 04:55:42;;;;;;;0.70;0.70;;;;;;;26.76;40.29;95456.94;4920331;29;20651;-79
2022/06/25 04:58:08;;;;;;;0.80;0.80;;;;;;;26.38;40.87;95452.53;4937765;29;20189;-78
2022/06/25 05:00:33;;;;;;;1.70;1.00;;;;;;;27.55;38.42;95466.16;4920869;29;20221;-80
2022/06/25 05:02:59;;;;;;;3.67;1.10;;;;;;;27.90;37.17;95466.41;4919871;29;20940;-78
2022/06/25 05:05:24;;;;;;;4.13;1.67;;;;;;;29.13;34.69;95466.88;4904853;29;20682;-80
2022/06/25 05:07:49;;;;;;;3.28;1.48;;;;;;;29.66;34.29;95468.25;4920657;29;20189;-80
2022/06/25 05:10:15;;;;;;;0.85;0.85;;;;;;;29.92;34.22;95465.53;4919480;29;20567;-82
2022/06/25 05:15:24;;;;;;;2.97;0.90;;;;;;;28.65;36.81;95466.25;4921369;29;20252;-82
2022/06/25 05:17:49;;;;;;;0.80;0.80;;;;;;;28.44;37.14;95463.50;4918482;29;20217;-81
2022/06/25 05:20:15;;;;;;;1.27;1.13;;;;;;;28.74;36.31;95467.34;4938643;29;20186;-84
2022/06/25 05:22:40;;;;;;;2.20;1.00;;;;;;;30.14;33.94;95469.53;4902331;29;20182;-83
2022/06/25 05:25:06;;;;;;;1.13;1.00;;;;;;;29.55;35.20;95464.78;4918503;29;20178;-83
2022/06/25 05:27:31;;;;;;;0.98;0.80;;;;;;;29.25;33.92;95468.25;4924925;29;20731;-82
2022/06/25 05:29:57;;;;;;;1.95;1.05;;;;;;;28.79;36.13;95467.34;4919304;29;20214;-83
2022/06/25 05:32:22;;;;;;;7.32;1.25;;;;;;;29.45;36.09;95470.13;4918392;29;20182;-84
2022/06/25 05:34:50;;;;;;;2.80;0.85;;;;;;;30.04;34.15;95474.88;4917218;29;20189;-83
2022/06/25 05:37:16;;;;;;;1.48;0.90;;;;;;;28.65;37.32;95466.25;4907614;29;20174;-83
2022/06/25 05:39:41;;;;;;;1.00;0.82;;;;;;;32.68;30.45;95477.50;4918499;29;20227;-84
2022/06/25 05:42:06;;;;;;;1.58;0.70;;;;;;;34.42;27.34;95486.34;4917746;29;20208;-82
2022/06/25 05:44:32;;;;;;;0.80;0.80;;;;;;;33.65;29.05;95486.06;4918829;29;20698;-81
2022/06/25 05:46:57;;;;;;;1.38;0.80;;;;;;;33.84;29.18;95491.41;4906205;29;20527;-83
2022/06/25 05:49:23;;;;;;;1.83;1.13;;;;;;;34.67;27.09;95493.13;4903111;29;20248;-82
2022/06/25 05:51:48;;;;;;;1.67;0.70;;;;;;;34.62;28.16;95499.41;4924741;29;20205;-79
2022/06/25 05:54:13;;;;;;;3.67;1.30;;;;;;;30.95;34.05;95494.38;4935814;29;20333;-78
2022/06/25 05:56:39;;;;;;;1.70;1.02;;;;;;;32.90;29.70;95500.38;4917811;29;20327;-80
2022/06/25 05:59:04;;;;;;;1.95;1.00;;;;;;;32.23;30.91;95494.16;4901650;29;20181;-80
2022/06/25 06:01:30;;;;;;;3.15;0.80;;;;;;;33.49;29.24;95502.50;4917589;29;20185;-81
2022/06/25 06:03:55;;;;;;;2.25;0.90;;;;;;;34.39;28.50;95510.38;4934206;29;20193;-81
2022/06/25 06:06:21;;;;;;;1.02;0.85;;;;;;;34.29;28.41;95514.88;4922265;28;20189;-79
2022/06/25 06:08:46;;;;;;;1.30;0.90;;;;;;;34.89;26.94;95512.06;4937251;28;20823;-82
2022/06/25 06:11:11;;;;;;;1.02;0.90;;;;;;;34.13;26.97;95516.25;4930876;29;20701;-81
2022/06/25 06:13:36;;;;;;;3.08;1.30;;;;;;;33.70;28.17;95512.94;4916726;29;20224;-80
2022/06/25 06:16:02;;;;;;;2.33;1.10;;;;;;;33.31;28.24;95503.28;4919345;29;20186;-80
2022/06/25 06:18:27;;;;;;;1.83;1.13;;;;;;;33.17;28.71;95500.53;4920631;29;20531;-79
2022/06/25 06:20:53;;;;;;;2.28;1.10;;;;;;;33.74;27.81;95503.16;4937540;29;20197;-81
2022/06/25 06:23:18;;;;;;;1.30;1.20;;;;;;;32.42;30.14;95513.84;4929293;29;20189;-80
2022/06/25 06:25:43;;;;;;;2.85;0.93;;;;;;;33.01;29.55;95514.50;4904977;29;20189;-81
2022/06/25 06:28:09;;;;;;;2.35;1.00;;;;;;;34.26;27.33;95520.84;4937956;29;20256;-81
2022/06/25 06:30:34;;;;;;;1.60;1.08;;;;;;;32.10;30.72;95522.50;4920867;29;20206;-81
2022/06/25 06:32:59;;;;;;;1.20;1.10;;;;;;;32.50;30.03;95518.59;4920690;29;20262;-81
2022/06/25 06:35:25;;;;;;;2.83;1.10;;;;;;;32.65;29.07;95523.00;4920626;29;20551;-81
2022/06/25 06:37:50;;;;;;;3.05;0.93;;;;;;;31.01;32.57;95518.22;4915193;29;20635;-79
2022/06/25 06:40:15;;;;;;;0.90;0.90;;;;;;;33.27;28.22;95521.09;4915795;29;20280;-81
2022/06/25 06:42:41;;;;;;;1.38;1.10;;;;;;;31.83;30.54;95515.78;4927760;29;20214;-80
2022/06/25 06:45:06;;;;;;;1.20;1.10;;;;;;;31.65;31.46;95516.44;4943227;29;20568;-81
2022/06/25 06:47:32;;;;;;;2.25;0.98;;;;;;;33.01;28.60;95519.88;4930573;29;20215;-81
2022/06/25 06:49:57;;;;;;;2.35;1.10;;;;;;;33.26;28.75;95519.50;4927740;29;20728;-80
2022/06/25 06:52:22;;;;;;;1.25;1.02;;;;;;;31.40;31.58;95517.44;4932963;29;20186;-81
2022/06/25 06:54:48;;;;;;;3.33;1.00;;;;;;;31.64;31.34;95511.38;4923351;29;20209;-80
2022/06/25 06:57:14;;;;;;;1.55;1.00;;;;;;;31.28;32.63;95515.13;4924078;29;20188;-80
2022/06/25 06:59:40;;;;;;;1.52;1.00;;;;;;;30.65;33.58;95520.25;4939633;29;20196;-81
2022/06/25 07:02:06;;;;;;;4.40;1.20;;;;;;;29.42;34.90;95516.13;4938552;29;20185;-81
2022/06/25 07:04:31;;;;;;;2.58;1.10;;;;;;;31.15;31.18;95507.66;4923412;29;20173;-80
2022/06/25 07:06:56;;;;;;;4.65;1.17;;;;;;;29.71;34.10;95519.09;4956382;28;20179;-81
2022/06/25 07:12:02;;;;;;;1.60;1.20;;;;;;;28.96;35.00;95505.34;5008245;23;20248;-80
2022/06/25 07:14:27;;;;;;;2.85;1.33;;;;;;;27.44;38.83;95507.97;4901450;29;20206;-79
2022/06/25 07:17:01;;;;;;;1.55;1.08;;;;;;;27.25;38.49;95502.19;4917094;29;20643;-80
2022/06/25 07:19:26;;;;;;;1.83;1.40;;;;;;;27.13;40.62;95508.75;4886858;29;20256;-79
2022/06/25 07:21:54;;;;;;;1.23;0.93;;;;;;;27.82;39.06;95504.25;4902938;29;20643;-79
2022/06/25 07:24:20;;;;;;;1.98;1.20;;;;;;;27.06;42.07;95508.97;4901458;29;20218;-80
2022/06/25 07:26:46;;;;;;;3.70;1.20;;;;;;;27.78;38.91;95513.84;4902063;29;20594;-80
2022/06/25 07:29:11;;;;;;;1.77;1.17;;;;;;;29.80;36.23;95516.69;4902541;29;20203;-79
2022/06/25 07:31:36;;;;;;;2.85;1.00;;;;;;;29.60;36.57;95520.97;4900836;29;20209;-77
2022/06/25 07:34:01;;;;;;;2.15;1.05;;;;;;;29.84;34.80;95507.84;4899699;29;20213;-77
2022/06/25 07:36:27;;;;;;;3.10;1.20;;;;;;;30.16;34.65;95509.41;4899945;29;20183;-77
2022/06/25 07:38:52;;;;;;;3.28;1.30;;;;;;;29.81;34.06;95502.22;4898911;29;20183;-77
2022/06/25 07:41:18;;;;;;;1.88;1.27;;;;;;;30.22;33.71;95504.88;4917290;29;20177;-81
2022/06/25 07:43:43;;;;;;;2.33;1.30;;;;;;;28.85;36.55;95501.03;4901229;29;20179;-80
2022/06/25 07:46:09;;;;;;;1.98;1.30;;;;;;;28.53;37.44;95501.19;4886379;29;20182;-80
2022/06/25 07:48:34;;;;;;;6.00;1.50;;;;;;;28.61;37.29;95500.69;4886353;29;20186;-80
2022/06/25 07:53:44;;;;;;;1.42;1.33;;;;;;;29.04;37.31;95494.16;4918282;29;20221;-80
2022/06/25 07:56:09;;;;;;;1.73;1.58;;;;;;;28.61;38.36;95489.19;4917563;29;20190;-79
2022/06/25 07:58:34;;;;;;;2.47;1.45;;;;;;;28.54;38.17;95489.47;4889243;29;20206;-76
2022/06/25 08:01:00;;;;;;;1.40;1.20;;;;;;;26.33;42.64;95479.06;4899101;29;20202;-78
2022/06/25 08:03:25;;;;;;;2.05;1.50;;;;;;;24.97;46.68;95479.38;4884169;29;20186;-77
2022/06/25 08:05:51;;;;;;;3.30;1.52;;;;;;;23.92;49.57;95477.03;4898951;29;20178;-78
2022/06/25 08:08:16;;;;;;;2.45;1.85;;;;;;;23.87;50.04;95469.78;4934244;29;20190;-78
2022/06/25 08:10:41;;;;;;;3.30;2.13;;;;;;;24.23;50.20;95475.84;4918830;29;20293;-79
2022/06/25 08:13:07;;;;;;;3.10;2.03;;;;;;;23.57;51.73;95469.06;4903416;29;20300;-79
2022/06/25 08:15:32;;;;;;;2.50;2.30;;;;;;;22.89;53.96;95468.53;4918432;29;20651;-79
2022/06/25 08:17:58;;;;;;;2.67;2.28;;;;;;;23.41;53.45;95470.53;4903320;29;20673;-79
2022/06/25 08:20:23;;;;;;;3.00;2.22;;;;;;;23.47;53.72;95474.94;4918808;29;20220;-79
2022/06/25 08:22:49;;;;;;;2.75;1.90;;;;;;;24.15;53.27;95476.19;4905704;29;20613;-77
2022/06/25 08:25:14;;;;;;;3.50;1.88;;;;;;;23.83;51.43;95478.41;4880940;29;20241;-77
2022/06/25 08:27:49;;;;;;;3.88;1.88;;;;;;;22.65;53.81;95476.56;4893797;29;20186;-78
2022/06/25 08:30:14;;;;;;;2.75;1.90;;;;;;;22.97;54.64;95477.97;4914188;29;20307;-80
2022/06/25 08:32:40;;;;;;;2.28;1.70;;;;;;;23.23;54.29;95475.94;4898690;29;20200;-78
2022/06/25 08:35:05;;;;;;;2.05;1.85;;;;;;;23.88;51.83;95476.69;4896871;29;20253;-77
2022/06/25 08:37:31;;;;;;;2.65;1.77;;;;;;;23.59;53.50;95477.59;4889061;29;20183;-76
2022/06/25 08:39:56;;;;;;;4.32;1.80;;;;;;;23.94;52.23;95475.78;4898651;29;20217;-77
2022/06/25 08:42:21;;;;;;;3.05;1.80;;;;;;;23.66;51.96;95473.81;4932643;29;20627;-78
2022/06/25 08:44:47;;;;;;;2.72;1.63;;;;;;;23.87;53.20;95476.94;4917637;29;20186;-82
2022/06/25 08:47:13;;;;;;;3.10;1.65;;;;;;;23.80;53.28;95474.41;4886245;29;20182;-84
2022/06/25 08:49:38;;;;;;;4.13;2.08;;;;;;;23.73;52.17;95481.66;4901108;29;20262;-81
2022/06/25 08:52:04;;;;;;;3.92;1.90;;;;;;;23.34;52.51;95475.97;4900288;29;20245;-81
2022/06/25 08:54:30;;;;;;;2.28;1.52;;;;;;;23.29;53.84;95467.88;4901151;29;20179;-81
2022/06/25 08:56:56;;;;;;;2.60;1.60;;;;;;;23.14;53.46;95470.16;4885634;29;20241;-80
2022/06/25 08:59:21;;;;;;;3.88;1.80;;;;;;;23.80;53.17;95474.41;4885586;29;20698;-79
2022/06/25 09:01:46;;;;;;;6.32;1.75;;;;;;;23.93;53.05;95470.69;4900509;29;20178;-80
2022/06/25 09:04:12;;;;;;;3.88;1.63;;;;;;;23.68;52.52;95465.66;4899711;29;20255;-80
2022/06/25 09:06:37;;;;;;;5.22;2.20;;;;;;;23.41;53.07;95460.78;4885853;29;20178;-79
2022/06/25 09:09:09;;;;;;;3.53;1.88;;;;;;;23.42;52.54;95465.03;4900782;29;20639;-81
2022/06/25 09:11:51;;;;;;;2.78;1.73;;;;;;;23.42;52.83;95462.38;4885499;29;20238;-81
2022/06/25 09:14:28;;;;;;;3.05;1.58;;;;;;;23.23;52.04;95460.03;4900829;29;20221;-80
2022/06/25 09:16:58;;;;;;;3.80;1.50;;;;;;;23.41;51.79;95460.78;4917648;29;20174;-81
2022/06/25 09:19:31;;;;;;;4.93;1.90;;;;;;;23.22;53.16;95459.25;4901181;29;20202;-80
2022/06/25 09:21:58;;;;;;;3.38;1.85;;;;;;;23.66;52.46;95459.75;4885703;29;20203;-81
2022/06/25 09:24:23;;;;;;;2.33;1.60;;;;;;;23.91;50.14;95457.66;4900665;29;20710;-80
2022/06/25 09:26:52;;;;;;;1.60;1.50;;;;;;;23.93;50.17;95466.19;4901334;29;20209;-82
2022/06/25 09:29:17;;;;;;;2.90;1.85;;;;;;;24.38;49.49;95465.53;4886173;29;20746;-82
2022/06/25 09:31:42;;;;;;;2.00;1.35;;;;;;;24.64;48.34;95458.84;4900489;29;20297;-83
2022/06/25 09:34:08;;;;;;;3.45;1.75;;;;;;;24.65;48.55;95459.66;4900428;29;20179;-82
2022/06/25 09:36:34;;;;;;;4.38;1.73;;;;;;;24.80;47.57;95449.31;4885138;29;20562;-81
2022/06/25 09:38:59;;;;;;;2.13;1.77;;;;;;;24.56;50.76;95457.41;4889464;29;20206;-83
2022/06/25 09:41:25;;;;;;;2.03;1.40;;;;;;;25.15;47.66;95457.13;4900011;29;20722;-82
2022/06/25 09:43:51;;;;;;;5.70;1.83;;;;;;;25.30;45.82;95453.91;4898909;29;20178;-82
2022/06/25 09:46:19;;;;;;;1.55;1.25;;;;;;;25.17;44.20;95444.41;4884779;29;20627;-83
2022/06/25 09:48:45;;;;;;;4.32;1.90;;;;;;;24.94;47.44;95440.03;4884412;29;20175;-82
2022/06/25 09:51:15;;;;;;;4.55;1.80;;;;;;;25.15;45.48;95457.13;4883366;29;20213;-83
2022/06/25 09:53:55;;;;;;;1.98;1.40;;;;;;;25.40;44.98;95448.75;4899525;29;20182;-83
2022/06/25 09:56:31;;;;;;;4.25;2.03;;;;;;;24.94;45.57;95448.00;4883988;29;20246;-83
2022/06/25 09:58:56;;;;;;;3.55;1.35;;;;;;;25.01;46.24;95443.34;4883871;29;20667;-83
2022/06/25 10:01:25;;;;;;;3.25;1.40;;;;;;;25.43;45.94;95446.41;4883723;29;20190;-83
2022/06/25 10:03:51;;;;;;;1.30;1.00;;;;;;;25.56;42.76;95444.47;4898661;29;20666;-83
2022/06/25 10:06:20;;;;;;;1.85;1.20;;;;;;;25.12;44.12;95433.72;4883443;29;20273;-84
2022/06/25 10:09:05;;;;;;;3.50;1.50;;;;;;;25.75;42.68;95437.88;4883938;29;20178;-83
2022/06/25 10:11:32;;;;;;;2.63;1.38;;;;;;;25.78;42.39;95439.22;4884935;29;20353;-82
2022/06/25 10:13:58;;;;;;;3.20;1.38;;;;;;;26.33;40.25;95433.00;4884833;29;20202;-84
2022/06/25 10:16:25;;;;;;;2.05;1.17;;;;;;;25.93;40.54;95437.56;4884487;29;20274;-82
2022/06/25 10:18:52;;;;;;;1.92;1.38;;;;;;;25.92;41.46;95433.31;4884012;29;20182;-80
2022/06/25 10:21:19;;;;;;;3.90;1.40;;;;;;;25.68;43.02;95431.88;4883341;29;20667;-81
2022/06/25 10:23:50;;;;;;;1.85;1.35;;;;;;;26.33;40.58;95435.66;4883203;29;20594;-80
2022/06/25 10:26:16;;;;;;;3.00;1.25;;;;;;;26.09;40.78;95432.47;4883152;29;20186;-81
2022/06/25 10:28:42;;;;;;;2.83;1.30;;;;;;;25.91;39.38;95431.72;4883417;29;20182;-80
2022/06/25 10:31:13;;;;;;;3.22;1.20;;;;;;;26.52;39.25;95427.13;4883501;29;20262;-82
2022/06/25 10:34:15;;;;;;;4.70;1.30;;;;;;;26.56;40.05;95423.97;4883869;29;20187;-81
2022/06/25 10:36:52;;;;;;;2.85;1.42;;;;;;;26.35;40.91;95418.41;4826777;29;20188;-82
2022/06/25 10:39:35;;;;;;;3.70;1.80;;;;;;;26.24;39.95;95420.16;4842291;29;20582;-81
2022/06/25 10:45:26;;;;;;;2.25;1.50;;;;;;;26.48;40.88;95412.69;4856814;29;20203;-81
2022/06/25 10:47:54;;;;;;;3.00;1.20;;;;;;;26.47;39.85;95411.09;4841457;29;20191;-82
2022/06/25 10:50:22;;;;;;;3.65;1.85;;;;;;;26.63;40.56;95412.06;4840636;29;20281;-81
2022/06/25 10:53:05;;;;;;;2.58;1.40;;;;;;;26.88;39.79;95418.69;4838505;29;20204;-82
2022/06/25 10:55:35;;;;;;;3.67;1.70;;;;;;;27.20;39.34;95416.84;4839510;29;20201;-82
2022/06/25 10:58:21;;;;;;;3.72;1.25;;;;;;;26.45;39.65;95415.06;4839801;29;20224;-81
2022/06/25 11:05:59;;;;;;;1.83;1.25;;;;;;;26.31;39.89;95400.50;5018905;23;20709;-80
2022/06/25 11:08:34;;;;;;;1.85;1.25;;;;;;;26.21;40.17;95402.00;4921720;29;20186;-81
2022/06/25 11:11:00;;;;;;;3.03;1.70;;;;;;;26.26;40.66;95407.38;4920666;29;20624;-81
2022/06/25 11:13:25;;;;;;;3.53;1.33;;;;;;;26.19;41.83;95401.44;4920769;29;20182;-80
2022/06/25 11:15:50;;;;;;;5.70;1.45;;;;;;;26.16;41.10;95396.63;4904267;29;20186;-80
2022/06/25 11:18:16;;;;;;;3.25;1.50;;;;;;;26.14;40.07;95389.94;4920710;29;20186;-81
2022/06/25 11:20:42;;;;;;;3.53;1.30;;;;;;;26.02;40.25;95389.25;4921201;29;20186;-79
2022/06/25 11:23:12;;;;;;;3.25;1.27;;;;;;;25.98;41.67;95388.97;4905516;29;20291;-80
2022/06/25 11:28:49;;;;;;;3.17;1.30;;;;;;;26.51;39.58;95390.13;4919116;29;20221;-80
2022/06/25 11:31:17;;;;;;;1.63;1.10;;;;;;;26.70;39.19;95393.22;4923227;29;20673;-82
2022/06/25 11:33:43;;;;;;;2.20;1.92;;;;;;;27.03;37.99;95385.03;4915414;29;20198;-78
2022/06/25 11:36:13;;;;;;;4.18;1.38;;;;;;;27.46;37.68;95385.03;4917863;29;20277;-80
2022/06/25 11:38:43;;;;;;;1.48;1.10;;;;;;;27.01;37.69;95395.06;4905212;29;20220;-80
2022/06/25 11:41:29;;;;;;;2.75;1.10;;;;;;;26.36;38.11;95393.38;4902543;29;20222;-80
2022/06/25 11:43:54;;;;;;;2.05;1.20;;;;;;;26.23;41.40;95385.78;4900876;29;20906;-80
2022/06/25 11:46:20;;;;;;;2.28;1.27;;;;;;;26.76;39.77;95382.34;4886215;29;20191;-80
2022/06/25 11:48:50;;;;;;;1.88;1.23;;;;;;;27.27;38.95;95387.31;4886380;29;20187;-80
2022/06/25 11:51:25;;;;;;;3.90;1.45;;;;;;;27.61;37.12;95374.47;4901419;29;20198;-82
2022/06/25 11:53:51;;;;;;;1.70;1.30;;;;;;;27.08;37.65;95382.38;4900949;29;20178;-83